sensor_id;sensor_type;location;lat;lon;timestamp;P1;durP1;ratioP1;P2;durP2;ratioP2
7703;SDS011;3894;49.700;10.770;2023-07-24T00:00:43;10.10;;;2.40;;
7703;SDS011;3894;49.700;10.770;2023-07-24T00:03:09;8.45;;;2.03;;
7703;SDS011;3894;49.700;10.770;2023-07-24T00:05:34;6.47;;;2.10;;
7703;SDS011;3894;49.700;10.770;2023-07-24T00:08:00;6.50;;;2.13;;
7703;SDS011;3894;49.700;10.770;2023-07-24T00:10:25;7.65;;;2.67;;
7703;SDS011;3894;49.700;10.770;2023-07-24T00:12:51;7.00;;;2.75;;
7703;SDS011;3894;49.700;10.770;2023-07-24T00:15:17;7.20;;;2.35;;
7703;SDS011;3894;49.700;10.770;2023-07-24T00:17:42;7.15;;;2.10;;
7703;SDS011;3894;49.700;10.770;2023-07-24T00:20:08;7.88;;;2.50;;
7703;SDS011;3894;49.700;10.770;2023-07-24T00:22:34;6.85;;;2.65;;
7703;SDS011;3894;49.700;10.770;2023-07-24T00:24:59;7.07;;;2.30;;
7703;SDS011;3894;49.700;10.770;2023-07-24T00:27:25;6.63;;;2.17;;
7703;SDS011;3894;49.700;10.770;2023-07-24T00:29:50;7.13;;;2.30;;
7703;SDS011;3894;49.700;10.770;2023-07-24T00:32:16;7.72;;;2.63;;
7703;SDS011;3894;49.700;10.770;2023-07-24T00:34:41;7.70;;;2.20;;
7703;SDS011;3894;49.700;10.770;2023-07-24T00:37:07;9.55;;;2.50;;
7703;SDS011;3894;49.700;10.770;2023-07-24T00:39:32;7.05;;;2.28;;
7703;SDS011;3894;49.700;10.770;2023-07-24T00:41:58;7.30;;;2.53;;
7703;SDS011;3894;49.700;10.770;2023-07-24T00:44:24;7.35;;;2.47;;
7703;SDS011;3894;49.700;10.770;2023-07-24T00:46:49;7.55;;;2.53;;
7703;SDS011;3894;49.700;10.770;2023-07-24T00:49:15;7.57;;;2.75;;
7703;SDS011;3894;49.700;10.770;2023-07-24T00:51:42;7.63;;;2.78;;
7703;SDS011;3894;49.700;10.770;2023-07-24T00:56:36;7.88;;;2.83;;
7703;SDS011;3894;49.700;10.770;2023-07-24T00:59:02;8.48;;;3.03;;
7703;SDS011;3894;49.700;10.770;2023-07-24T01:01:28;7.53;;;2.85;;
7703;SDS011;3894;49.700;10.770;2023-07-24T01:03:54;10.55;;;2.72;;
7703;SDS011;3894;49.700;10.770;2023-07-24T01:06:23;7.78;;;2.63;;
7703;SDS011;3894;49.700;10.770;2023-07-24T01:08:48;8.43;;;2.88;;
7703;SDS011;3894;49.700;10.770;2023-07-24T01:11:15;9.40;;;2.97;;
7703;SDS011;3894;49.700;10.770;2023-07-24T01:13:44;8.38;;;2.60;;
7703;SDS011;3894;49.700;10.770;2023-07-24T01:16:21;10.70;;;3.20;;
7703;SDS011;3894;49.700;10.770;2023-07-24T01:18:48;8.38;;;2.90;;
7703;SDS011;3894;49.700;10.770;2023-07-24T01:21:16;7.18;;;2.33;;
7703;SDS011;3894;49.700;10.770;2023-07-24T01:24:03;7.95;;;2.58;;
7703;SDS011;3894;49.700;10.770;2023-07-24T01:26:48;8.25;;;2.78;;
7703;SDS011;3894;49.700;10.770;2023-07-24T01:29:14;8.57;;;2.80;;
7703;SDS011;3894;49.700;10.770;2023-07-24T01:31:40;8.63;;;2.60;;
7703;SDS011;3894;49.700;10.770;2023-07-24T01:34:06;9.32;;;3.28;;
7703;SDS011;3894;49.700;10.770;2023-07-24T01:36:31;8.63;;;2.97;;
7703;SDS011;3894;49.700;10.770;2023-07-24T01:38:57;7.85;;;2.78;;
7703;SDS011;3894;49.700;10.770;2023-07-24T01:41:23;8.27;;;3.22;;
7703;SDS011;3894;49.700;10.770;2023-07-24T01:43:50;8.52;;;3.08;;
7703;SDS011;3894;49.700;10.770;2023-07-24T01:46:16;8.05;;;2.88;;
7703;SDS011;3894;49.700;10.770;2023-07-24T01:48:41;8.65;;;2.65;;
7703;SDS011;3894;49.700;10.770;2023-07-24T01:51:07;7.78;;;3.00;;
7703;SDS011;3894;49.700;10.770;2023-07-24T01:53:32;8.18;;;2.95;;
7703;SDS011;3894;49.700;10.770;2023-07-24T01:55:58;7.72;;;2.80;;
7703;SDS011;3894;49.700;10.770;2023-07-24T01:58:23;8.65;;;3.17;;
7703;SDS011;3894;49.700;10.770;2023-07-24T02:00:49;8.07;;;3.15;;
7703;SDS011;3894;49.700;10.770;2023-07-24T02:03:14;8.93;;;3.72;;
7703;SDS011;3894;49.700;10.770;2023-07-24T02:05:40;8.45;;;3.00;;
7703;SDS011;3894;49.700;10.770;2023-07-24T02:08:06;9.02;;;3.20;;
7703;SDS011;3894;49.700;10.770;2023-07-24T02:10:31;7.80;;;2.47;;
7703;SDS011;3894;49.700;10.770;2023-07-24T02:12:57;8.45;;;2.80;;
7703;SDS011;3894;49.700;10.770;2023-07-24T02:15:22;7.82;;;2.78;;
7703;SDS011;3894;49.700;10.770;2023-07-24T02:17:48;9.32;;;2.83;;
7703;SDS011;3894;49.700;10.770;2023-07-24T02:20:13;6.90;;;2.30;;
7703;SDS011;3894;49.700;10.770;2023-07-24T02:22:39;8.68;;;3.05;;
7703;SDS011;3894;49.700;10.770;2023-07-24T02:25:05;8.65;;;3.03;;
7703;SDS011;3894;49.700;10.770;2023-07-24T02:27:31;8.30;;;3.05;;
7703;SDS011;3894;49.700;10.770;2023-07-24T02:29:59;9.25;;;2.88;;
7703;SDS011;3894;49.700;10.770;2023-07-24T02:32:25;7.50;;;2.88;;
7703;SDS011;3894;49.700;10.770;2023-07-24T02:34:51;8.45;;;3.30;;
7703;SDS011;3894;49.700;10.770;2023-07-24T02:37:17;7.85;;;2.85;;
7703;SDS011;3894;49.700;10.770;2023-07-24T02:39:43;9.48;;;3.85;;
7703;SDS011;3894;49.700;10.770;2023-07-24T02:42:09;8.05;;;2.95;;
7703;SDS011;3894;49.700;10.770;2023-07-24T02:44:35;8.95;;;3.30;;
7703;SDS011;3894;49.700;10.770;2023-07-24T02:47:00;9.48;;;3.10;;
7703;SDS011;3894;49.700;10.770;2023-07-24T02:49:26;8.43;;;3.00;;
7703;SDS011;3894;49.700;10.770;2023-07-24T02:51:52;9.48;;;3.50;;
7703;SDS011;3894;49.700;10.770;2023-07-24T02:54:17;8.18;;;3.05;;
7703;SDS011;3894;49.700;10.770;2023-07-24T02:56:43;9.02;;;2.90;;
7703;SDS011;3894;49.700;10.770;2023-07-24T02:59:08;9.38;;;3.60;;
7703;SDS011;3894;49.700;10.770;2023-07-24T03:01:34;9.77;;;3.63;;
7703;SDS011;3894;49.700;10.770;2023-07-24T03:04:00;9.57;;;3.85;;
7703;SDS011;3894;49.700;10.770;2023-07-24T03:06:25;8.48;;;3.15;;
7703;SDS011;3894;49.700;10.770;2023-07-24T03:08:51;8.55;;;2.83;;
7703;SDS011;3894;49.700;10.770;2023-07-24T03:11:17;8.02;;;3.40;;
7703;SDS011;3894;49.700;10.770;2023-07-24T03:13:43;9.50;;;2.90;;
7703;SDS011;3894;49.700;10.770;2023-07-24T03:16:08;8.70;;;3.03;;
7703;SDS011;3894;49.700;10.770;2023-07-24T03:18:34;10.05;;;3.47;;
7703;SDS011;3894;49.700;10.770;2023-07-24T03:20:59;8.45;;;3.03;;
7703;SDS011;3894;49.700;10.770;2023-07-24T03:23:25;11.32;;;3.72;;
7703;SDS011;3894;49.700;10.770;2023-07-24T03:25:51;11.25;;;4.07;;
7703;SDS011;3894;49.700;10.770;2023-07-24T03:28:17;11.18;;;3.75;;
7703;SDS011;3894;49.700;10.770;2023-07-24T03:30:42;8.05;;;3.50;;
7703;SDS011;3894;49.700;10.770;2023-07-24T03:33:08;9.93;;;3.72;;
7703;SDS011;3894;49.700;10.770;2023-07-24T03:35:33;7.68;;;2.83;;
7703;SDS011;3894;49.700;10.770;2023-07-24T03:37:59;8.23;;;3.33;;
7703;SDS011;3894;49.700;10.770;2023-07-24T03:40:25;10.95;;;3.85;;
7703;SDS011;3894;49.700;10.770;2023-07-24T03:42:50;9.60;;;3.30;;
7703;SDS011;3894;49.700;10.770;2023-07-24T03:45:16;11.20;;;4.03;;
7703;SDS011;3894;49.700;10.770;2023-07-24T03:47:41;9.73;;;3.92;;
7703;SDS011;3894;49.700;10.770;2023-07-24T03:50:07;9.60;;;3.80;;
7703;SDS011;3894;49.700;10.770;2023-07-24T03:52:33;10.40;;;3.75;;
7703;SDS011;3894;49.700;10.770;2023-07-24T03:54:58;10.57;;;3.67;;
7703;SDS011;3894;49.700;10.770;2023-07-24T03:57:24;9.93;;;4.03;;
7703;SDS011;3894;49.700;10.770;2023-07-24T03:59:50;10.35;;;4.05;;
7703;SDS011;3894;49.700;10.770;2023-07-24T04:02:15;9.13;;;3.67;;
7703;SDS011;3894;49.700;10.770;2023-07-24T04:04:41;9.18;;;3.78;;
7703;SDS011;3894;49.700;10.770;2023-07-24T04:07:06;9.88;;;3.28;;
7703;SDS011;3894;49.700;10.770;2023-07-24T04:09:32;10.63;;;3.13;;
7703;SDS011;3894;49.700;10.770;2023-07-24T04:11:57;11.60;;;4.07;;
7703;SDS011;3894;49.700;10.770;2023-07-24T04:14:23;9.68;;;3.63;;
7703;SDS011;3894;49.700;10.770;2023-07-24T04:16:48;9.20;;;3.95;;
7703;SDS011;3894;49.700;10.770;2023-07-24T04:19:14;12.52;;;4.65;;
7703;SDS011;3894;49.700;10.770;2023-07-24T04:21:40;10.10;;;3.20;;
7703;SDS011;3894;49.700;10.770;2023-07-24T04:24:05;9.68;;;3.72;;
7703;SDS011;3894;49.700;10.770;2023-07-24T04:26:31;11.18;;;3.75;;
7703;SDS011;3894;49.700;10.770;2023-07-24T04:28:57;10.80;;;3.85;;
7703;SDS011;3894;49.700;10.770;2023-07-24T04:31:22;12.13;;;4.13;;
7703;SDS011;3894;49.700;10.770;2023-07-24T04:33:48;9.52;;;3.58;;
7703;SDS011;3894;49.700;10.770;2023-07-24T04:36:13;10.35;;;3.70;;
7703;SDS011;3894;49.700;10.770;2023-07-24T04:38:39;10.90;;;4.35;;
7703;SDS011;3894;49.700;10.770;2023-07-24T04:41:05;11.30;;;4.05;;
7703;SDS011;3894;49.700;10.770;2023-07-24T04:43:30;11.15;;;4.47;;
7703;SDS011;3894;49.700;10.770;2023-07-24T04:45:56;12.00;;;4.00;;
7703;SDS011;3894;49.700;10.770;2023-07-24T04:48:21;11.80;;;4.40;;
7703;SDS011;3894;49.700;10.770;2023-07-24T04:50:52;17.50;;;5.25;;
7703;SDS011;3894;49.700;10.770;2023-07-24T04:53:21;12.35;;;4.57;;
7703;SDS011;3894;49.700;10.770;2023-07-24T04:55:47;11.93;;;4.13;;
7703;SDS011;3894;49.700;10.770;2023-07-24T04:58:13;11.57;;;4.70;;
7703;SDS011;3894;49.700;10.770;2023-07-24T05:00:39;12.45;;;4.43;;
7703;SDS011;3894;49.700;10.770;2023-07-24T05:03:04;12.35;;;4.05;;
7703;SDS011;3894;49.700;10.770;2023-07-24T05:05:31;13.38;;;4.38;;
7703;SDS011;3894;49.700;10.770;2023-07-24T05:07:57;10.60;;;4.03;;
7703;SDS011;3894;49.700;10.770;2023-07-24T05:10:22;10.82;;;4.75;;
7703;SDS011;3894;49.700;10.770;2023-07-24T05:12:49;12.07;;;4.70;;
7703;SDS011;3894;49.700;10.770;2023-07-24T05:15:15;14.43;;;5.05;;
7703;SDS011;3894;49.700;10.770;2023-07-24T05:17:42;12.48;;;4.97;;
7703;SDS011;3894;49.700;10.770;2023-07-24T05:20:08;11.00;;;4.28;;
7703;SDS011;3894;49.700;10.770;2023-07-24T05:22:34;11.48;;;4.72;;
7703;SDS011;3894;49.700;10.770;2023-07-24T05:25:00;13.88;;;4.15;;
7703;SDS011;3894;49.700;10.770;2023-07-24T05:27:25;11.52;;;4.60;;
7703;SDS011;3894;49.700;10.770;2023-07-24T05:29:51;11.73;;;4.57;;
7703;SDS011;3894;49.700;10.770;2023-07-24T05:32:17;11.95;;;3.90;;
7703;SDS011;3894;49.700;10.770;2023-07-24T05:34:42;12.38;;;4.72;;
7703;SDS011;3894;49.700;10.770;2023-07-24T05:37:08;11.60;;;4.40;;
7703;SDS011;3894;49.700;10.770;2023-07-24T05:39:33;12.45;;;4.68;;
7703;SDS011;3894;49.700;10.770;2023-07-24T05:41:59;10.27;;;4.20;;
7703;SDS011;3894;49.700;10.770;2023-07-24T05:44:24;11.43;;;4.03;;
7703;SDS011;3894;49.700;10.770;2023-07-24T05:46:50;11.25;;;4.38;;
7703;SDS011;3894;49.700;10.770;2023-07-24T05:49:16;11.05;;;4.18;;
7703;SDS011;3894;49.700;10.770;2023-07-24T05:51:41;13.10;;;4.85;;
7703;SDS011;3894;49.700;10.770;2023-07-24T05:54:07;11.57;;;4.70;;
7703;SDS011;3894;49.700;10.770;2023-07-24T05:56:32;13.98;;;5.07;;
7703;SDS011;3894;49.700;10.770;2023-07-24T05:58:58;12.82;;;5.22;;
7703;SDS011;3894;49.700;10.770;2023-07-24T06:01:23;10.15;;;4.20;;
7703;SDS011;3894;49.700;10.770;2023-07-24T06:03:49;11.60;;;4.20;;
7703;SDS011;3894;49.700;10.770;2023-07-24T06:06:14;11.30;;;4.78;;
7703;SDS011;3894;49.700;10.770;2023-07-24T06:08:40;11.95;;;4.35;;
7703;SDS011;3894;49.700;10.770;2023-07-24T06:11:06;9.80;;;3.95;;
7703;SDS011;3894;49.700;10.770;2023-07-24T06:13:31;12.80;;;5.70;;
7703;SDS011;3894;49.700;10.770;2023-07-24T06:15:57;13.40;;;4.10;;
7703;SDS011;3894;49.700;10.770;2023-07-24T06:18:22;10.18;;;4.40;;
7703;SDS011;3894;49.700;10.770;2023-07-24T06:20:51;12.63;;;5.55;;
7703;SDS011;3894;49.700;10.770;2023-07-24T06:23:18;13.35;;;4.85;;
7703;SDS011;3894;49.700;10.770;2023-07-24T06:25:43;11.02;;;4.63;;
7703;SDS011;3894;49.700;10.770;2023-07-24T06:28:09;9.90;;;3.90;;
7703;SDS011;3894;49.700;10.770;2023-07-24T06:30:34;11.55;;;4.72;;
7703;SDS011;3894;49.700;10.770;2023-07-24T06:33:00;12.32;;;4.75;;
7703;SDS011;3894;49.700;10.770;2023-07-24T06:35:25;11.13;;;4.53;;
7703;SDS011;3894;49.700;10.770;2023-07-24T06:37:51;11.50;;;4.30;;
7703;SDS011;3894;49.700;10.770;2023-07-24T06:40:16;12.23;;;4.90;;
7703;SDS011;3894;49.700;10.770;2023-07-24T06:42:43;11.60;;;4.93;;
7703;SDS011;3894;49.700;10.770;2023-07-24T06:45:10;11.52;;;4.90;;
7703;SDS011;3894;49.700;10.770;2023-07-24T06:47:36;13.35;;;6.38;;
7703;SDS011;3894;49.700;10.770;2023-07-24T06:50:01;11.48;;;4.55;;
7703;SDS011;3894;49.700;10.770;2023-07-24T06:52:27;10.95;;;5.05;;
7703;SDS011;3894;49.700;10.770;2023-07-24T06:54:53;12.32;;;4.90;;
7703;SDS011;3894;49.700;10.770;2023-07-24T06:57:18;12.18;;;5.00;;
7703;SDS011;3894;49.700;10.770;2023-07-24T06:59:44;11.60;;;4.43;;
7703;SDS011;3894;49.700;10.770;2023-07-24T07:02:09;10.60;;;4.53;;
7703;SDS011;3894;49.700;10.770;2023-07-24T07:04:35;9.63;;;4.50;;
7703;SDS011;3894;49.700;10.770;2023-07-24T07:07:00;13.73;;;4.82;;
7703;SDS011;3894;49.700;10.770;2023-07-24T07:09:26;9.75;;;4.72;;
7703;SDS011;3894;49.700;10.770;2023-07-24T07:11:52;11.43;;;4.90;;
7703;SDS011;3894;49.700;10.770;2023-07-24T07:14:17;11.48;;;4.97;;
7703;SDS011;3894;49.700;10.770;2023-07-24T07:16:43;12.70;;;5.25;;
7703;SDS011;3894;49.700;10.770;2023-07-24T07:19:09;10.07;;;4.18;;
7703;SDS011;3894;49.700;10.770;2023-07-24T07:21:34;10.65;;;4.75;;
7703;SDS011;3894;49.700;10.770;2023-07-24T07:24:00;9.77;;;4.13;;
7703;SDS011;3894;49.700;10.770;2023-07-24T07:26:26;11.75;;;4.75;;
7703;SDS011;3894;49.700;10.770;2023-07-24T07:28:51;11.45;;;4.72;;
7703;SDS011;3894;49.700;10.770;2023-07-24T07:31:17;10.85;;;4.50;;
7703;SDS011;3894;49.700;10.770;2023-07-24T07:33:42;12.45;;;4.80;;
7703;SDS011;3894;49.700;10.770;2023-07-24T07:36:08;11.88;;;5.10;;
7703;SDS011;3894;49.700;10.770;2023-07-24T07:38:33;13.02;;;4.60;;
7703;SDS011;3894;49.700;10.770;2023-07-24T07:41:03;10.05;;;3.90;;
7703;SDS011;3894;49.700;10.770;2023-07-24T07:43:29;11.25;;;4.43;;
7703;SDS011;3894;49.700;10.770;2023-07-24T07:45:54;11.63;;;4.85;;
7703;SDS011;3894;49.700;10.770;2023-07-24T07:48:21;10.82;;;4.95;;
7703;SDS011;3894;49.700;10.770;2023-07-24T07:50:50;11.45;;;4.38;;
7703;SDS011;3894;49.700;10.770;2023-07-24T07:53:17;11.80;;;5.15;;
7703;SDS011;3894;49.700;10.770;2023-07-24T07:55:42;11.32;;;4.43;;
7703;SDS011;3894;49.700;10.770;2023-07-24T07:58:08;11.10;;;4.90;;
7703;SDS011;3894;49.700;10.770;2023-07-24T08:00:34;11.45;;;4.88;;
7703;SDS011;3894;49.700;10.770;2023-07-24T08:02:59;10.93;;;4.95;;
7703;SDS011;3894;49.700;10.770;2023-07-24T08:05:25;10.75;;;4.53;;
7703;SDS011;3894;49.700;10.770;2023-07-24T08:07:51;11.18;;;5.03;;
7703;SDS011;3894;49.700;10.770;2023-07-24T08:10:16;12.25;;;4.97;;
7703;SDS011;3894;49.700;10.770;2023-07-24T08:12:42;12.43;;;5.50;;
7703;SDS011;3894;49.700;10.770;2023-07-24T08:15:08;12.23;;;4.75;;
7703;SDS011;3894;49.700;10.770;2023-07-24T08:17:34;12.05;;;5.40;;
7703;SDS011;3894;49.700;10.770;2023-07-24T08:20:00;12.23;;;4.95;;
7703;SDS011;3894;49.700;10.770;2023-07-24T08:22:26;15.25;;;5.07;;
7703;SDS011;3894;49.700;10.770;2023-07-24T08:24:51;13.10;;;5.40;;
7703;SDS011;3894;49.700;10.770;2023-07-24T08:27:17;12.93;;;5.15;;
7703;SDS011;3894;49.700;10.770;2023-07-24T08:29:42;13.52;;;4.78;;
7703;SDS011;3894;49.700;10.770;2023-07-24T08:32:08;12.10;;;5.30;;
7703;SDS011;3894;49.700;10.770;2023-07-24T08:34:33;11.57;;;5.80;;
7703;SDS011;3894;49.700;10.770;2023-07-24T08:36:59;11.10;;;4.70;;
7703;SDS011;3894;49.700;10.770;2023-07-24T08:39:25;10.30;;;4.53;;
7703;SDS011;3894;49.700;10.770;2023-07-24T08:41:50;12.10;;;5.18;;
7703;SDS011;3894;49.700;10.770;2023-07-24T08:44:16;13.35;;;4.97;;
7703;SDS011;3894;49.700;10.770;2023-07-24T08:46:42;14.20;;;5.55;;
7703;SDS011;3894;49.700;10.770;2023-07-24T08:49:11;11.35;;;4.75;;
7703;SDS011;3894;49.700;10.770;2023-07-24T08:51:37;11.18;;;5.03;;
7703;SDS011;3894;49.700;10.770;2023-07-24T08:54:05;12.05;;;4.85;;
7703;SDS011;3894;49.700;10.770;2023-07-24T08:56:31;11.95;;;5.13;;
7703;SDS011;3894;49.700;10.770;2023-07-24T08:58:58;12.90;;;5.13;;
7703;SDS011;3894;49.700;10.770;2023-07-24T09:01:23;12.43;;;5.32;;
7703;SDS011;3894;49.700;10.770;2023-07-24T09:03:49;11.65;;;5.05;;
7703;SDS011;3894;49.700;10.770;2023-07-24T09:06:15;12.57;;;5.43;;
7703;SDS011;3894;49.700;10.770;2023-07-24T09:08:41;14.38;;;5.50;;
7703;SDS011;3894;49.700;10.770;2023-07-24T09:13:38;11.07;;;4.97;;
7703;SDS011;3894;49.700;10.770;2023-07-24T09:16:07;11.30;;;4.57;;
7703;SDS011;3894;49.700;10.770;2023-07-24T09:18:41;11.45;;;5.05;;
7703;SDS011;3894;49.700;10.770;2023-07-24T09:21:09;10.38;;;4.70;;
7703;SDS011;3894;49.700;10.770;2023-07-24T09:23:37;14.63;;;5.00;;
7703;SDS011;3894;49.700;10.770;2023-07-24T09:26:05;11.05;;;4.55;;
7703;SDS011;3894;49.700;10.770;2023-07-24T09:28:32;11.95;;;6.03;;
7703;SDS011;3894;49.700;10.770;2023-07-24T09:30:59;11.77;;;5.20;;
7703;SDS011;3894;49.700;10.770;2023-07-24T09:36:01;11.90;;;4.53;;
7703;SDS011;3894;49.700;10.770;2023-07-24T09:38:27;11.13;;;4.72;;
7703;SDS011;3894;49.700;10.770;2023-07-24T09:40:53;11.00;;;5.30;;
7703;SDS011;3894;49.700;10.770;2023-07-24T09:43:21;10.48;;;4.75;;
7703;SDS011;3894;49.700;10.770;2023-07-24T09:45:48;13.82;;;4.93;;
7703;SDS011;3894;49.700;10.770;2023-07-24T09:48:16;11.43;;;4.82;;
7703;SDS011;3894;49.700;10.770;2023-07-24T09:58:24;11.52;;;4.72;;
7703;SDS011;3894;49.700;10.770;2023-07-24T10:00:51;11.05;;;5.25;;
7703;SDS011;3894;49.700;10.770;2023-07-24T10:03:17;11.48;;;4.72;;
7703;SDS011;3894;49.700;10.770;2023-07-24T10:05:45;11.75;;;4.70;;
7703;SDS011;3894;49.700;10.770;2023-07-24T10:08:12;12.52;;;5.95;;
7703;SDS011;3894;49.700;10.770;2023-07-24T10:10:39;9.88;;;5.13;;
7703;SDS011;3894;49.700;10.770;2023-07-24T10:13:05;10.15;;;4.68;;
7703;SDS011;3894;49.700;10.770;2023-07-24T10:15:36;13.50;;;5.30;;
7703;SDS011;3894;49.700;10.770;2023-07-24T10:18:06;13.13;;;5.95;;
7703;SDS011;3894;49.700;10.770;2023-07-24T10:20:36;11.55;;;5.10;;
7703;SDS011;3894;49.700;10.770;2023-07-24T10:23:04;9.35;;;4.35;;
7703;SDS011;3894;49.700;10.770;2023-07-24T10:25:34;10.95;;;4.45;;
7703;SDS011;3894;49.700;10.770;2023-07-24T10:28:06;11.63;;;4.65;;
7703;SDS011;3894;49.700;10.770;2023-07-24T10:30:35;10.65;;;4.57;;
7703;SDS011;3894;49.700;10.770;2023-07-24T10:33:06;10.40;;;4.13;;
7703;SDS011;3894;49.700;10.770;2023-07-24T10:35:42;11.38;;;4.70;;
7703;SDS011;3894;49.700;10.770;2023-07-24T10:38:15;9.27;;;3.60;;
7703;SDS011;3894;49.700;10.770;2023-07-24T10:40:42;12.00;;;4.22;;
7703;SDS011;3894;49.700;10.770;2023-07-24T10:43:10;11.30;;;3.65;;
7703;SDS011;3894;49.700;10.770;2023-07-24T10:45:47;9.63;;;3.80;;
7703;SDS011;3894;49.700;10.770;2023-07-24T10:48:15;10.98;;;3.38;;
7703;SDS011;3894;49.700;10.770;2023-07-24T10:50:43;10.02;;;4.22;;
7703;SDS011;3894;49.700;10.770;2023-07-24T10:53:11;10.68;;;3.75;;
7703;SDS011;3894;49.700;10.770;2023-07-24T10:55:40;9.45;;;3.47;;
7703;SDS011;3894;49.700;10.770;2023-07-24T10:58:07;10.65;;;4.18;;
7703;SDS011;3894;49.700;10.770;2023-07-24T11:00:32;12.52;;;4.13;;
7703;SDS011;3894;49.700;10.770;2023-07-24T11:02:59;11.30;;;4.03;;
7703;SDS011;3894;49.700;10.770;2023-07-24T11:05:24;11.00;;;3.85;;
7703;SDS011;3894;49.700;10.770;2023-07-24T11:07:51;9.05;;;4.30;;
7703;SDS011;3894;49.700;10.770;2023-07-24T11:10:20;9.73;;;3.83;;
7703;SDS011;3894;49.700;10.770;2023-07-24T11:12:46;10.40;;;4.30;;
7703;SDS011;3894;49.700;10.770;2023-07-24T11:15:12;11.68;;;4.75;;
7703;SDS011;3894;49.700;10.770;2023-07-24T11:17:39;9.90;;;4.88;;
7703;SDS011;3894;49.700;10.770;2023-07-24T11:20:12;12.07;;;5.05;;
7703;SDS011;3894;49.700;10.770;2023-07-24T11:25:05;9.50;;;4.20;;
7703;SDS011;3894;49.700;10.770;2023-07-24T11:27:31;11.60;;;4.22;;
7703;SDS011;3894;49.700;10.770;2023-07-24T11:29:57;9.85;;;4.20;;
7703;SDS011;3894;49.700;10.770;2023-07-24T11:32:23;11.75;;;4.78;;
7703;SDS011;3894;49.700;10.770;2023-07-24T11:34:49;11.27;;;5.00;;
7703;SDS011;3894;49.700;10.770;2023-07-24T11:37:16;12.13;;;4.18;;
7703;SDS011;3894;49.700;10.770;2023-07-24T11:39:43;10.88;;;4.38;;
7703;SDS011;3894;49.700;10.770;2023-07-24T11:42:27;10.95;;;4.88;;
7703;SDS011;3894;49.700;10.770;2023-07-24T11:44:53;12.57;;;4.55;;
7703;SDS011;3894;49.700;10.770;2023-07-24T11:47:18;11.50;;;4.15;;
7703;SDS011;3894;49.700;10.770;2023-07-24T11:49:44;10.90;;;4.78;;
7703;SDS011;3894;49.700;10.770;2023-07-24T11:52:20;9.88;;;4.18;;
7703;SDS011;3894;49.700;10.770;2023-07-24T11:54:46;9.77;;;4.55;;
7703;SDS011;3894;49.700;10.770;2023-07-24T11:57:25;12.60;;;4.72;;
7703;SDS011;3894;49.700;10.770;2023-07-24T11:59:52;12.48;;;4.88;;
7703;SDS011;3894;49.700;10.770;2023-07-24T12:02:18;11.05;;;5.05;;
7703;SDS011;3894;49.700;10.770;2023-07-24T12:04:44;13.13;;;5.25;;
7703;SDS011;3894;49.700;10.770;2023-07-24T12:07:09;11.63;;;5.22;;
7703;SDS011;3894;49.700;10.770;2023-07-24T12:09:35;10.95;;;4.53;;
7703;SDS011;3894;49.700;10.770;2023-07-24T12:12:02;13.82;;;5.57;;
7703;SDS011;3894;49.700;10.770;2023-07-24T12:14:29;12.98;;;5.70;;
7703;SDS011;3894;49.700;10.770;2023-07-24T12:17:01;12.07;;;5.20;;
7703;SDS011;3894;49.700;10.770;2023-07-24T12:19:27;11.40;;;4.82;;
7703;SDS011;3894;49.700;10.770;2023-07-24T12:21:53;11.27;;;5.20;;
7703;SDS011;3894;49.700;10.770;2023-07-24T12:24:19;11.75;;;4.95;;
7703;SDS011;3894;49.700;10.770;2023-07-24T12:26:44;13.20;;;5.50;;
7703;SDS011;3894;49.700;10.770;2023-07-24T12:29:10;12.18;;;4.97;;
7703;SDS011;3894;49.700;10.770;2023-07-24T12:31:35;10.30;;;4.97;;
7703;SDS011;3894;49.700;10.770;2023-07-24T12:34:01;11.25;;;5.03;;
7703;SDS011;3894;49.700;10.770;2023-07-24T12:36:26;11.00;;;4.60;;
7703;SDS011;3894;49.700;10.770;2023-07-24T12:38:52;10.82;;;4.63;;
7703;SDS011;3894;49.700;10.770;2023-07-24T12:41:18;12.30;;;4.85;;
7703;SDS011;3894;49.700;10.770;2023-07-24T12:43:44;12.27;;;4.97;;
7703;SDS011;3894;49.700;10.770;2023-07-24T12:46:09;10.95;;;4.60;;
7703;SDS011;3894;49.700;10.770;2023-07-24T12:48:35;10.88;;;4.65;;
7703;SDS011;3894;49.700;10.770;2023-07-24T12:51:01;9.77;;;4.20;;
7703;SDS011;3894;49.700;10.770;2023-07-24T12:53:27;10.68;;;4.78;;
7703;SDS011;3894;49.700;10.770;2023-07-24T12:55:53;9.70;;;4.07;;
7703;SDS011;3894;49.700;10.770;2023-07-24T12:58:18;11.05;;;5.20;;
7703;SDS011;3894;49.700;10.770;2023-07-24T13:00:44;10.63;;;4.93;;
7703;SDS011;3894;49.700;10.770;2023-07-24T13:03:09;12.02;;;5.05;;
7703;SDS011;3894;49.700;10.770;2023-07-24T13:05:35;11.63;;;5.00;;
7703;SDS011;3894;49.700;10.770;2023-07-24T13:08:02;11.70;;;4.80;;
7703;SDS011;3894;49.700;10.770;2023-07-24T13:10:27;10.65;;;4.25;;
7703;SDS011;3894;49.700;10.770;2023-07-24T13:12:53;10.23;;;4.35;;
7703;SDS011;3894;49.700;10.770;2023-07-24T13:15:18;9.57;;;4.13;;
7703;SDS011;3894;49.700;10.770;2023-07-24T13:17:44;11.38;;;4.63;;
7703;SDS011;3894;49.700;10.770;2023-07-24T13:20:09;10.80;;;4.40;;
7703;SDS011;3894;49.700;10.770;2023-07-24T13:22:35;9.52;;;4.03;;
7703;SDS011;3894;49.700;10.770;2023-07-24T13:25:01;12.88;;;5.07;;
7703;SDS011;3894;49.700;10.770;2023-07-24T13:27:27;11.88;;;3.88;;
7703;SDS011;3894;49.700;10.770;2023-07-24T13:29:53;9.07;;;4.18;;
7703;SDS011;3894;49.700;10.770;2023-07-24T13:32:18;11.30;;;4.10;;
7703;SDS011;3894;49.700;10.770;2023-07-24T13:34:44;8.95;;;3.92;;
7703;SDS011;3894;49.700;10.770;2023-07-24T13:37:09;9.70;;;3.97;;
7703;SDS011;3894;49.700;10.770;2023-07-24T13:39:35;9.65;;;4.05;;
7703;SDS011;3894;49.700;10.770;2023-07-24T13:42:00;8.52;;;3.55;;
7703;SDS011;3894;49.700;10.770;2023-07-24T13:44:26;8.82;;;4.05;;
7703;SDS011;3894;49.700;10.770;2023-07-24T13:46:52;8.90;;;3.80;;
7703;SDS011;3894;49.700;10.770;2023-07-24T13:49:20;9.75;;;4.00;;
7703;SDS011;3894;49.700;10.770;2023-07-24T13:51:46;8.32;;;3.72;;
7703;SDS011;3894;49.700;10.770;2023-07-24T13:54:12;8.93;;;3.30;;
7703;SDS011;3894;49.700;10.770;2023-07-24T13:56:37;9.32;;;3.65;;
7703;SDS011;3894;49.700;10.770;2023-07-24T13:59:03;8.85;;;4.50;;
7703;SDS011;3894;49.700;10.770;2023-07-24T14:01:29;8.40;;;3.38;;
7703;SDS011;3894;49.700;10.770;2023-07-24T14:03:54;8.63;;;4.05;;
7703;SDS011;3894;49.700;10.770;2023-07-24T14:06:20;10.00;;;4.47;;
7703;SDS011;3894;49.700;10.770;2023-07-24T14:08:45;8.85;;;3.85;;
7703;SDS011;3894;49.700;10.770;2023-07-24T14:11:11;8.30;;;3.53;;
7703;SDS011;3894;49.700;10.770;2023-07-24T14:13:37;7.82;;;3.22;;
7703;SDS011;3894;49.700;10.770;2023-07-24T14:16:02;7.88;;;3.28;;
7703;SDS011;3894;49.700;10.770;2023-07-24T14:18:28;7.53;;;2.78;;
7703;SDS011;3894;49.700;10.770;2023-07-24T14:20:54;7.28;;;3.30;;
7703;SDS011;3894;49.700;10.770;2023-07-24T14:23:21;7.40;;;3.25;;
7703;SDS011;3894;49.700;10.770;2023-07-24T14:25:47;7.90;;;3.05;;
7703;SDS011;3894;49.700;10.770;2023-07-24T14:28:12;7.50;;;2.90;;
7703;SDS011;3894;49.700;10.770;2023-07-24T14:30:38;8.15;;;2.90;;
7703;SDS011;3894;49.700;10.770;2023-07-24T14:33:04;7.80;;;3.45;;
7703;SDS011;3894;49.700;10.770;2023-07-24T14:35:29;7.70;;;2.92;;
7703;SDS011;3894;49.700;10.770;2023-07-24T14:37:55;6.88;;;2.70;;
7703;SDS011;3894;49.700;10.770;2023-07-24T14:40:20;7.68;;;2.80;;
7703;SDS011;3894;49.700;10.770;2023-07-24T14:42:46;9.10;;;3.08;;
7703;SDS011;3894;49.700;10.770;2023-07-24T14:45:11;10.98;;;2.80;;
7703;SDS011;3894;49.700;10.770;2023-07-24T14:47:37;8.10;;;2.80;;
7703;SDS011;3894;49.700;10.770;2023-07-24T14:50:02;10.63;;;3.50;;
7703;SDS011;3894;49.700;10.770;2023-07-24T14:52:28;8.38;;;2.80;;
7703;SDS011;3894;49.700;10.770;2023-07-24T14:54:54;7.15;;;2.72;;
7703;SDS011;3894;49.700;10.770;2023-07-24T14:57:19;6.30;;;2.55;;
7703;SDS011;3894;49.700;10.770;2023-07-24T14:59:45;6.10;;;2.15;;
7703;SDS011;3894;49.700;10.770;2023-07-24T15:02:10;6.95;;;2.85;;
7703;SDS011;3894;49.700;10.770;2023-07-24T15:04:36;6.72;;;2.42;;